Spirit of New Zealand — ZMSV — position and weather

sailwx.info

Track history (hours):
 
Tides and Currents Weather Stations Pressure Air Temp Water Temp Dewpoint Dewpoint Depression Visibility Wind Speed Wind Dir Waves Ship Positions

Spirit of New Zealand

Last reported at 2018-Apr-20 06:30 UTC. Time now 2018-Apr-20 06:45 UTC.
Position S 36°29' E 174°48'.

Length 45 m; draft 4.1 m.

Type: Passenger vessel. MMSI: 512201000.

Date/timePositionNaut miles runAvg speedWind from/ knotsBaromVisibWave heightAir tempDewpointWater temp
2018-Apr-20 06:30S 36°29' E 174°48'0 0.0
2018-Apr-20 06:00S 36°29' E 174°48'2 4.2
2018-Apr-20 05:30S 36°30' E 174°51'3 5.6
2018-Apr-20 05:00S 36°29' E 174°54'2 3.1
2018-Apr-20 04:30S 36°28' E 174°54'1 1.1
2018-Apr-20 04:00S 36°27' E 174°54'1 2.8
2018-Apr-20 03:30S 36°26' E 174°54'1 1.4
2018-Apr-20 02:58S 36°25' E 174°54'3 6.6
2018-Apr-20 02:30S 36°22' E 174°53'2 0.1
2018-Apr-19 12:32S 36°21' E 174°50'0 0.0
2018-Apr-19 12:26S 36°21' E 174°50'0 0.0
2018-Apr-19 11:02S 36°21' E 174°50'0 0.0
2018-Apr-19 10:38S 36°21' E 174°50'  
2018-Apr-16 02:59S 36°14' E 175°07'4 7.2
2018-Apr-16 02:28S 36°17' E 175°03'3 5.9
2018-Apr-16 01:56S 36°19' E 174°60'3 5.6
2018-Apr-16 01:29S 36°20' E 174°57'3 5.6
2018-Apr-16 01:00S 36°22' E 174°55'3 5.1
2018-Apr-16 00:30S 36°23' E 174°52'2 0.5
2018-Apr-15 20:53S 36°23' E 174°50'2 5.7
2018-Apr-15 20:29S 36°24' E 174°47'0 0.1
2018-Apr-15 17:20S 36°24' E 174°47'0 0.0
2018-Apr-15 16:44S 36°24' E 174°47'0 0.0
2018-Apr-15 16:20S 36°24' E 174°47'0 0.0
2018-Apr-15 15:56S 36°24' E 174°47'0 0.0
2018-Apr-15 15:26S 36°24' E 174°47'0 0.0
2018-Apr-15 14:50S 36°24' E 174°47'0 0.0
2018-Apr-15 06:20S 36°24' E 174°47'0 0.1
2018-Apr-15 05:56S 36°24' E 174°47'0 0.1
2018-Apr-15 05:14S 36°24' E 174°47'0 0.1
2018-Apr-15 04:49S 36°24' E 174°47'2 3.2
2018-Apr-15 04:17S 36°25' E 174°47'1 0.8
2018-Apr-15 03:38S 36°26' E 174°47'0 2.2
2018-Apr-15 03:25S 36°26' E 174°47'1 2.9
2018-Apr-15 03:00S 36°27' E 174°47'0 0.2
2018-Apr-15 02:29S 36°27' E 174°47'0 0.0
2018-Apr-15 01:59S 36°27' E 174°47'0 0.0
2018-Apr-15 01:29S 36°27' E 174°47'0 0.0
2018-Apr-15 00:53S 36°27' E 174°47'0 0.1
2018-Apr-15 00:29S 36°27' E 174°47'0 0.0
2018-Apr-14 23:59S 36°27' E 174°47'0 0.0
2018-Apr-14 23:29S 36°27' E 174°47'0 0.0
2018-Apr-14 22:59S 36°27' E 174°47'0 0.0
2018-Apr-14 22:29S 36°27' E 174°47'0 0.1
2018-Apr-14 21:59S 36°27' E 174°46'0 0.0
2018-Apr-14 21:29S 36°27' E 174°46'0 0.1
2018-Apr-14 20:59S 36°27' E 174°47'2 0.3
2018-Apr-14 14:47S 36°25' E 174°46'0 0.0
2018-Apr-14 03:53S 36°25' E 174°46'2 4.6
2018-Apr-14 03:30S 36°27' E 174°47'3 6.2
2018-Apr-14 03:00S 36°28' E 174°51'2 4.0
2018-Apr-14 02:30S 36°29' E 174°53'2 3.3
2018-Apr-14 01:59S 36°30' E 174°51'1 1.4
2018-Apr-14 01:30S 36°30' E 174°51'3 4.8
2018-Apr-14 00:59S 36°33' E 174°51'4 5.9
2018-Apr-14 00:16S 36°37' E 174°51'1 5.0
2018-Apr-14 00:00S 36°38' E 174°50'3 4.9
2018-Apr-13 23:28S 36°39' E 174°47'1 1.7
2018-Apr-13 23:00S 36°39' E 174°46'0 0.0
2018-Apr-13 22:18S 36°39' E 174°46'0 0.0
2018-Apr-13 22:00S 36°39' E 174°46'0 0.0
2018-Apr-13 21:30S 36°39' E 174°46'0 0.0
2018-Apr-13 20:54S 36°39' E 174°46'0 0.0
2018-Apr-13 20:24S 36°39' E 174°46'0 0.0
2018-Apr-13 20:00S 36°39' E 174°46'0 0.0
2018-Apr-13 19:30S 36°39' E 174°46'0 0.0
2018-Apr-13 18:54S 36°39' E 174°46'0 0.0
2018-Apr-13 18:30S 36°39' E 174°46'0 0.0
2018-Apr-13 18:00S 36°39' E 174°46'0 0.0
2018-Apr-13 17:30S 36°39' E 174°46'0 0.0
2018-Apr-13 17:00S 36°39' E 174°46'0 0.0
2018-Apr-13 16:30S 36°39' E 174°46'0 0.0
2018-Apr-13 15:42S 36°39' E 174°46'0 0.0
2018-Apr-13 15:18S 36°39' E 174°46'0 0.0
2018-Apr-13 14:24S 36°39' E 174°46'0 0.0
2018-Apr-13 14:00S 36°39' E 174°46'0 0.0
2018-Apr-13 13:30S 36°39' E 174°46'0 0.0
2018-Apr-13 12:54S 36°39' E 174°46'0 0.0
2018-Apr-13 12:30S 36°39' E 174°46'0 0.0
2018-Apr-13 09:12S 36°39' E 174°46'0 0.0
2018-Apr-13 09:00S 36°39' E 174°46'0 0.0
2018-Apr-13 08:30S 36°39' E 174°46'0 0.1
2018-Apr-13 08:00S 36°39' E 174°46'0 0.0
2018-Apr-13 07:30S 36°39' E 174°46'0 0.0
2018-Apr-13 07:00S 36°39' E 174°46'0 0.0
2018-Apr-13 06:30S 36°39' E 174°46'0 0.0
2018-Apr-13 05:54S 36°39' E 174°46'0 0.0
2018-Apr-13 05:24S 36°39' E 174°46'0 0.0
2018-Apr-13 04:54S 36°39' E 174°46'1 3.5
2018-Apr-13 04:30S 36°40' E 174°46'1 1.2
2018-Apr-13 04:00S 36°40' E 174°47'0 0.2
2018-Apr-13 03:30S 36°40' E 174°47'2 4.9
2018-Apr-13 03:00S 36°43' E 174°47'3 5.7
2018-Apr-13 02:30S 36°46' E 174°48'1 2.8
2018-Apr-13 02:00S 36°45' E 174°47'0 0.4
2018-Apr-13 01:19S 36°44' E 174°47'0 0.0
2018-Apr-13 01:01S 36°44' E 174°47'0 0.1
2018-Apr-13 00:25S 36°44' E 174°47'2 5.5
2018-Apr-13 00:01S 36°47' E 174°47'1 1.0
2018-Apr-12 23:30S 36°47' E 174°47'1 2.9
2018-Apr-12 23:00S 36°48' E 174°49'4 0.4
2018-Apr-12 15:03S 36°51' E 174°46'0 0.0
2018-Apr-11 23:52S 36°51' E 174°46'1 4.1
2018-Apr-11 23:30S 36°50' E 174°48'4 7.0
2018-Apr-11 23:00S 36°49' E 174°52'4 3.5
2018-Apr-11 21:57S 36°50' E 174°48'1 0.1
2018-Apr-10 23:18S 36°51' E 174°46'1 3.6
2018-Apr-10 22:56S 36°50' E 174°45'4 8.1
2018-Apr-10 22:28S 36°50' E 174°49'4 8.3
2018-Apr-10 22:00S 36°49' E 174°54'  
Track history (hours):
 
Tides and Currents Weather Stations Pressure Air Temp Water Temp Dewpoint Dewpoint Depression Visibility Wind Speed Wind Dir Waves Ship Positions

Spirit of New Zealand

Last reported at 2018-Apr-20 06:30 UTC. Time now 2018-Apr-20 06:45 UTC.
Position S 36°29' E 174°48'.

Length 45 m; draft 4.1 m.

Type: Passenger vessel. MMSI: 512201000.

Date/timePositionNaut miles runAvg speedWind from/ knotsBaromVisibWave heightAir tempDewpointWater temp
2018-Apr-20 06:30S 36°29' E 174°48'0 0.0
2018-Apr-20 06:00S 36°29' E 174°48'2 4.2
2018-Apr-20 05:30S 36°30' E 174°51'3 5.6
2018-Apr-20 05:00S 36°29' E 174°54'2 3.1
2018-Apr-20 04:30S 36°28' E 174°54'1 1.1
2018-Apr-20 04:00S 36°27' E 174°54'1 2.8
2018-Apr-20 03:30S 36°26' E 174°54'1 1.4
2018-Apr-20 02:58S 36°25' E 174°54'3 6.6
2018-Apr-20 02:30S 36°22' E 174°53'2 0.1
2018-Apr-19 12:32S 36°21' E 174°50'0 0.0
2018-Apr-19 12:26S 36°21' E 174°50'0 0.0
2018-Apr-19 11:02S 36°21' E 174°50'0 0.0
2018-Apr-19 10:38S 36°21' E 174°50'  
2018-Apr-16 02:59S 36°14' E 175°07'4 7.2
2018-Apr-16 02:28S 36°17' E 175°03'3 5.9
2018-Apr-16 01:56S 36°19' E 174°60'3 5.6
2018-Apr-16 01:29S 36°20' E 174°57'3 5.6
2018-Apr-16 01:00S 36°22' E 174°55'3 5.1
2018-Apr-16 00:30S 36°23' E 174°52'2 0.5
2018-Apr-15 20:53S 36°23' E 174°50'2 5.7
2018-Apr-15 20:29S 36°24' E 174°47'0 0.1
2018-Apr-15 17:20S 36°24' E 174°47'0 0.0
2018-Apr-15 16:44S 36°24' E 174°47'0 0.0
2018-Apr-15 16:20S 36°24' E 174°47'0 0.0
2018-Apr-15 15:56S 36°24' E 174°47'0 0.0
2018-Apr-15 15:26S 36°24' E 174°47'0 0.0
2018-Apr-15 14:50S 36°24' E 174°47'0 0.0
2018-Apr-15 06:20S 36°24' E 174°47'0 0.1
2018-Apr-15 05:56S 36°24' E 174°47'0 0.1
2018-Apr-15 05:14S 36°24' E 174°47'0 0.1
2018-Apr-15 04:49S 36°24' E 174°47'2 3.2
2018-Apr-15 04:17S 36°25' E 174°47'1 0.8
2018-Apr-15 03:38S 36°26' E 174°47'0 2.2
2018-Apr-15 03:25S 36°26' E 174°47'1 2.9
2018-Apr-15 03:00S 36°27' E 174°47'0 0.2
2018-Apr-15 02:29S 36°27' E 174°47'0 0.0
2018-Apr-15 01:59S 36°27' E 174°47'0 0.0
2018-Apr-15 01:29S 36°27' E 174°47'0 0.0
2018-Apr-15 00:53S 36°27' E 174°47'0 0.1
2018-Apr-15 00:29S 36°27' E 174°47'0 0.0
2018-Apr-14 23:59S 36°27' E 174°47'0 0.0
2018-Apr-14 23:29S 36°27' E 174°47'0 0.0
2018-Apr-14 22:59S 36°27' E 174°47'0 0.0
2018-Apr-14 22:29S 36°27' E 174°47'0 0.1
2018-Apr-14 21:59S 36°27' E 174°46'0 0.0
2018-Apr-14 21:29S 36°27' E 174°46'0 0.1
2018-Apr-14 20:59S 36°27' E 174°47'2 0.3
2018-Apr-14 14:47S 36°25' E 174°46'0 0.0
2018-Apr-14 03:53S 36°25' E 174°46'2 4.6
2018-Apr-14 03:30S 36°27' E 174°47'3 6.2
2018-Apr-14 03:00S 36°28' E 174°51'2 4.0
2018-Apr-14 02:30S 36°29' E 174°53'2 3.3
2018-Apr-14 01:59S 36°30' E 174°51'1 1.4
2018-Apr-14 01:30S 36°30' E 174°51'3 4.8
2018-Apr-14 00:59S 36°33' E 174°51'4 5.9
2018-Apr-14 00:16S 36°37' E 174°51'1 5.0
2018-Apr-14 00:00S 36°38' E 174°50'3 4.9
2018-Apr-13 23:28S 36°39' E 174°47'1 1.7
2018-Apr-13 23:00S 36°39' E 174°46'0 0.0
2018-Apr-13 22:18S 36°39' E 174°46'0 0.0
2018-Apr-13 22:00S 36°39' E 174°46'0 0.0
2018-Apr-13 21:30S 36°39' E 174°46'0 0.0
2018-Apr-13 20:54S 36°39' E 174°46'0 0.0
2018-Apr-13 20:24S 36°39' E 174°46'0 0.0
2018-Apr-13 20:00S 36°39' E 174°46'0 0.0
2018-Apr-13 19:30S 36°39' E 174°46'0 0.0
2018-Apr-13 18:54S 36°39' E 174°46'0 0.0
2018-Apr-13 18:30S 36°39' E 174°46'0 0.0
2018-Apr-13 18:00S 36°39' E 174°46'0 0.0
2018-Apr-13 17:30S 36°39' E 174°46'0 0.0
2018-Apr-13 17:00S 36°39' E 174°46'0 0.0
2018-Apr-13 16:30S 36°39' E 174°46'0 0.0
2018-Apr-13 15:42S 36°39' E 174°46'0 0.0
2018-Apr-13 15:18S 36°39' E 174°46'0 0.0
2018-Apr-13 14:24S 36°39' E 174°46'0 0.0
2018-Apr-13 14:00S 36°39' E 174°46'0 0.0
2018-Apr-13 13:30S 36°39' E 174°46'0 0.0
2018-Apr-13 12:54S 36°39' E 174°46'0 0.0
2018-Apr-13 12:30S 36°39' E 174°46'0 0.0
2018-Apr-13 09:12S 36°39' E 174°46'0 0.0
2018-Apr-13 09:00S 36°39' E 174°46'0 0.0
2018-Apr-13 08:30S 36°39' E 174°46'0 0.1
2018-Apr-13 08:00S 36°39' E 174°46'0 0.0
2018-Apr-13 07:30S 36°39' E 174°46'0 0.0
2018-Apr-13 07:00S 36°39' E 174°46'0 0.0
2018-Apr-13 06:30S 36°39' E 174°46'0 0.0
2018-Apr-13 05:54S 36°39' E 174°46'0 0.0
2018-Apr-13 05:24S 36°39' E 174°46'0 0.0
2018-Apr-13 04:54S 36°39' E 174°46'1 3.5
2018-Apr-13 04:30S 36°40' E 174°46'1 1.2
2018-Apr-13 04:00S 36°40' E 174°47'0 0.2
2018-Apr-13 03:30S 36°40' E 174°47'2 4.9
2018-Apr-13 03:00S 36°43' E 174°47'3 5.7
2018-Apr-13 02:30S 36°46' E 174°48'1 2.8
2018-Apr-13 02:00S 36°45' E 174°47'0 0.4
2018-Apr-13 01:19S 36°44' E 174°47'0 0.0
2018-Apr-13 01:01S 36°44' E 174°47'0 0.1
2018-Apr-13 00:25S 36°44' E 174°47'2 5.5
2018-Apr-13 00:01S 36°47' E 174°47'1 1.0
2018-Apr-12 23:30S 36°47' E 174°47'1 2.9
2018-Apr-12 23:00S 36°48' E 174°49'4 0.4
2018-Apr-12 15:03S 36°51' E 174°46'0 0.0
2018-Apr-11 23:52S 36°51' E 174°46'1 4.1
2018-Apr-11 23:30S 36°50' E 174°48'4 7.0
2018-Apr-11 23:00S 36°49' E 174°52'4 3.5
2018-Apr-11 21:57S 36°50' E 174°48'1 0.1
2018-Apr-10 23:18S 36°51' E 174°46'1 3.6
2018-Apr-10 22:56S 36°50' E 174°45'4 8.1
2018-Apr-10 22:28S 36°50' E 174°49'4 8.3
2018-Apr-10 22:00S 36°49' E 174°54'  

Dump ship's entire track history